createdAt,value
2023-03-14T00:03:30.499Z,47.75
2023-03-14T00:08:32.682Z,48.08
2023-03-14T00:13:34.558Z,47.93
2023-03-14T00:18:37.029Z,47.80
2023-03-14T00:23:41.187Z,47.77
2023-03-14T00:28:44.063Z,48.12
2023-03-14T00:33:46.867Z,47.54
2023-03-14T00:38:51.838Z,47.73
2023-03-14T00:43:53.908Z,47.88
2023-03-14T00:48:55.862Z,47.86
2023-03-14T00:53:57.974Z,47.98
2023-03-14T00:58:59.931Z,48.12
2023-03-14T01:04:01.956Z,47.95
2023-03-14T01:09:04.216Z,48.01
2023-03-14T01:14:06.457Z,47.94
2023-03-14T01:19:08.622Z,47.83
2023-03-14T01:24:12.974Z,48.03
2023-03-14T01:29:14.965Z,47.80
2023-03-14T01:34:16.844Z,47.57
2023-03-14T01:39:18.845Z,47.83
2023-03-14T01:44:21.033Z,47.66
2023-03-14T01:49:28.112Z,47.40
2023-03-14T01:54:34.099Z,47.53
2023-03-14T01:59:37.631Z,47.75
2023-03-14T02:04:41.129Z,47.46
2023-03-14T02:09:43.970Z,47.52
2023-03-14T02:14:49.282Z,47.46
2023-03-14T02:20:14.507Z,47.56
2023-03-14T02:25:25.368Z,47.40
2023-03-14T02:30:29.797Z,47.60
2023-03-14T02:35:38.876Z,47.60
2023-03-14T02:40:40.864Z,47.63
2023-03-14T02:45:45.497Z,47.37
2023-03-14T02:50:50.384Z,47.66
2023-03-14T02:55:52.509Z,47.35
2023-03-14T03:00:55.013Z,47.42
2023-03-14T03:05:57.781Z,47.40
2023-03-14T03:11:00.721Z,47.69
2023-03-14T03:16:02.971Z,47.27
2023-03-14T03:21:06.132Z,47.57
2023-03-14T03:26:10.572Z,47.29
2023-03-14T03:31:13.287Z,47.41
2023-03-14T03:36:15.250Z,47.64
2023-03-14T03:41:17.465Z,47.49
2023-03-14T03:46:19.620Z,47.66
2023-03-14T03:51:21.509Z,47.33
2023-03-14T03:56:23.577Z,47.40
2023-03-14T04:01:25.529Z,47.53
2023-03-14T04:06:27.796Z,47.62
2023-03-14T04:11:29.802Z,47.31
2023-03-14T04:16:33.067Z,47.56
2023-03-14T04:21:35.005Z,47.48
2023-03-14T04:26:36.966Z,49.02
2023-03-14T04:31:39.134Z,48.19
2023-03-14T04:36:41.086Z,48.26
2023-03-14T04:41:43.021Z,48.21
2023-03-14T04:46:45.301Z,48.22
2023-03-14T04:51:47.284Z,48.16
2023-03-14T04:56:49.090Z,47.83
2023-03-14T05:01:51.131Z,47.71
2023-03-14T05:06:53.177Z,47.94
2023-03-14T05:11:55.084Z,47.75
2023-03-14T05:16:57.026Z,47.55
2023-03-14T05:21:58.832Z,47.55
2023-03-14T05:27:00.787Z,47.59
2023-03-14T05:32:02.846Z,47.67
2023-03-14T05:37:04.987Z,47.41
2023-03-14T05:42:06.931Z,47.72
2023-03-14T05:47:08.773Z,47.35
2023-03-14T05:52:11.023Z,47.47
2023-03-14T05:57:12.935Z,47.49
2023-03-14T06:02:14.693Z,47.52
2023-03-14T06:07:16.651Z,47.56
2023-03-14T06:12:18.699Z,47.36
2023-03-14T06:17:20.798Z,47.45
2023-03-14T06:22:22.698Z,47.34
2023-03-14T06:27:24.608Z,47.39
2023-03-14T06:32:26.917Z,47.45
2023-03-14T06:37:30.092Z,47.61
2023-03-14T06:42:32.009Z,47.32
2023-03-14T06:47:33.889Z,47.51
2023-03-14T06:52:36.238Z,47.50
2023-03-14T06:57:38.216Z,47.23
2023-03-14T07:02:43.236Z,47.51
2023-03-14T07:07:45.380Z,47.40
2023-03-14T07:12:47.415Z,47.56
2023-03-14T07:17:49.671Z,47.21
2023-03-14T07:22:51.904Z,47.19
2023-03-14T07:27:53.802Z,47.83
2023-03-14T07:32:55.674Z,47.72
2023-03-14T07:37:57.788Z,47.59
2023-03-14T07:43:00.090Z,47.39
2023-03-14T07:48:03.293Z,47.62
2023-03-14T07:53:08.387Z,48.07
2023-03-14T07:58:10.216Z,48.41
2023-03-14T08:03:12.310Z,48.16
2023-03-14T08:08:14.152Z,47.94
2023-03-14T08:13:16.266Z,48.30
2023-03-14T08:18:18.263Z,48.26
2023-03-14T08:23:20.201Z,48.05
2023-03-14T08:28:22.052Z,48.50
2023-03-14T08:33:24.312Z,48.34
2023-03-14T08:38:26.205Z,48.42
2023-03-14T08:43:29.458Z,48.03
2023-03-14T08:48:31.739Z,48.59
2023-03-14T08:53:33.723Z,48.21
2023-03-14T08:58:35.499Z,48.21
2023-03-14T09:03:37.403Z,47.89
2023-03-14T09:08:39.755Z,47.88
2023-03-14T09:13:42.365Z,47.95
2023-03-14T09:18:44.135Z,47.77
2023-03-14T09:23:47.073Z,47.54
2023-03-14T09:28:50.200Z,48.07
2023-03-14T09:33:52.231Z,48.44
2023-03-14T09:38:54.290Z,48.17
2023-03-14T09:44:06.895Z,48.22
2023-03-14T09:49:24.791Z,48.04
2023-03-14T09:54:35.304Z,48.15
2023-03-14T09:59:38.130Z,47.88
2023-03-14T10:04:42.828Z,48.04
2023-03-14T10:09:46.453Z,47.90
2023-03-14T10:14:52.117Z,47.46
2023-03-14T10:19:57.523Z,47.35
2023-03-14T10:25:28.045Z,47.46
2023-03-14T10:30:46.971Z,47.50
2023-03-14T10:35:56.935Z,47.34
2023-03-14T10:41:00.462Z,50.63
2023-03-14T10:46:10.369Z,44.08
2023-03-14T10:51:18.942Z,44.74
2023-03-14T10:56:23.424Z,43.98
2023-03-14T11:01:45.193Z,43.63
2023-03-14T11:07:01.593Z,42.99
2023-03-14T11:12:22.313Z,43.17
2023-03-14T11:17:43.401Z,43.02
2023-03-14T11:22:56.687Z,46.39
2023-03-14T11:28:04.277Z,47.32
2023-03-14T11:33:18.790Z,47.67
2023-03-14T11:38:31.665Z,48.26
2023-03-14T11:43:42.644Z,48.34
2023-03-14T11:49:02.708Z,48.39
2023-03-14T11:54:27.772Z,47.27
2023-03-14T11:59:32.836Z,47.33
2023-03-14T12:04:49.815Z,47.65
2023-03-14T12:09:54.732Z,48.30
2023-03-14T12:14:59.507Z,48.28
2023-03-14T12:20:16.320Z,48.83
2023-03-14T12:25:22.215Z,48.62
2023-03-14T12:30:42.574Z,48.65
2023-03-14T12:35:53.287Z,48.98
2023-03-14T12:41:13.537Z,49.13
2023-03-14T12:46:27.717Z,49.02
2023-03-14T12:51:35.093Z,48.82
2023-03-14T12:57:03.085Z,48.84
2023-03-14T13:02:08.575Z,49.04
2023-03-14T13:07:34.989Z,48.79
2023-03-14T13:12:54.927Z,48.62
2023-03-14T13:18:02.600Z,48.64
2023-03-14T13:23:04.694Z,48.72
2023-03-14T13:28:06.699Z,48.58
2023-03-14T13:33:15.245Z,48.41
2023-03-14T13:38:28.529Z,48.42
2023-03-14T13:43:37.344Z,48.41
2023-03-14T13:48:45.782Z,48.64
2023-03-14T13:53:55.596Z,48.62
2023-03-14T13:58:57.871Z,48.12
2023-03-14T14:04:07.919Z,48.51
2023-03-14T14:09:20.798Z,48.56
2023-03-14T14:14:28.561Z,48.45
2023-03-14T14:19:34.144Z,48.51
2023-03-14T14:24:38.256Z,48.30
2023-03-14T14:29:40.674Z,48.06
2023-03-14T14:34:50.840Z,48.19
2023-03-14T14:39:55.356Z,48.17
2023-03-14T14:44:59.300Z,48.03
2023-03-14T14:50:06.246Z,48.05
2023-03-14T14:55:19.335Z,48.24
2023-03-14T15:00:24.564Z,48.39
2023-03-14T15:05:30.433Z,48.24
2023-03-14T15:10:32.666Z,47.95
2023-03-14T15:15:36.037Z,47.86
2023-03-14T15:20:37.897Z,48.00
2023-03-14T15:25:54.968Z,47.90
2023-03-14T15:30:59.434Z,48.03
2023-03-14T15:36:02.266Z,47.88
2023-03-14T15:41:04.315Z,47.96
2023-03-14T15:46:07.640Z,47.89
2023-03-14T15:51:09.718Z,47.75
2023-03-14T15:56:15.481Z,47.56
2023-03-14T16:01:18.238Z,47.49
2023-03-14T16:06:20.910Z,47.43
2023-03-14T16:11:23.178Z,47.83
2023-03-14T16:16:25.191Z,47.47
2023-03-14T16:21:27.269Z,47.96
2023-03-14T16:26:29.295Z,47.81
2023-03-14T16:31:31.396Z,47.62
2023-03-14T16:36:33.518Z,47.70
2023-03-14T16:41:35.634Z,47.67
2023-03-14T16:46:38.293Z,47.58
2023-03-14T16:51:41.427Z,47.69
2023-03-14T16:56:43.419Z,47.30
2023-03-14T17:01:46.131Z,47.62
2023-03-14T17:06:48.063Z,47.48
2023-03-14T17:11:50.072Z,47.23
2023-03-14T17:16:52.139Z,47.23
2023-03-14T17:22:01.651Z,47.03
2023-03-14T17:27:12.119Z,47.12
2023-03-14T17:32:15.053Z,47.17
2023-03-14T17:37:16.922Z,47.12
2023-03-14T17:42:18.748Z,47.24
2023-03-14T17:47:20.783Z,47.07
2023-03-14T17:52:23.039Z,46.93
2023-03-14T17:57:25.142Z,47.09
2023-03-14T18:02:27.332Z,47.14
2023-03-14T18:07:29.327Z,46.77
2023-03-14T18:12:31.717Z,47.12
2023-03-14T18:17:33.798Z,47.01
2023-03-14T18:22:36.096Z,47.00
2023-03-14T18:27:38.407Z,45.49
2023-03-14T18:32:40.573Z,44.89
2023-03-14T18:37:46.156Z,44.55
2023-03-14T18:42:48.166Z,44.43
2023-03-14T18:47:50.010Z,43.87
2023-03-14T18:52:52.168Z,43.65
2023-03-14T18:57:54.185Z,43.70
2023-03-14T19:02:56.248Z,43.50
2023-03-14T19:07:58.474Z,43.81
2023-03-14T19:13:00.916Z,43.77
2023-03-14T19:18:03.615Z,43.56
2023-03-14T19:23:05.555Z,43.38
2023-03-14T19:28:07.862Z,43.47
2023-03-14T19:33:13.391Z,43.38
2023-03-14T19:38:15.582Z,43.21
2023-03-14T19:43:17.758Z,43.54
2023-03-14T19:48:19.752Z,43.29
2023-03-14T19:53:21.761Z,43.46
2023-03-14T19:58:24.023Z,43.42
2023-03-14T20:03:26.689Z,43.07
2023-03-14T20:08:28.662Z,43.27
2023-03-14T20:13:30.846Z,43.04
2023-03-14T20:18:33.421Z,43.23
2023-03-14T20:23:35.840Z,43.00
2023-03-14T20:28:37.725Z,43.08
2023-03-14T20:33:39.507Z,43.25
2023-03-14T20:38:41.360Z,43.21
2023-03-14T20:43:43.381Z,42.90
2023-03-14T20:48:45.540Z,43.00
2023-03-14T20:53:47.729Z,43.11
2023-03-14T20:58:49.569Z,43.03
2023-03-14T21:03:51.425Z,43.02
2023-03-14T21:08:53.256Z,43.08
2023-03-14T21:13:55.074Z,42.95
2023-03-14T21:18:59.697Z,43.04
2023-03-14T21:24:02.828Z,42.92
2023-03-14T21:29:05.110Z,42.67
2023-03-14T21:34:06.953Z,42.81
2023-03-14T21:39:09.909Z,42.82
2023-03-14T21:44:15.869Z,42.68
2023-03-14T21:49:18.254Z,42.60
2023-03-14T21:54:21.314Z,42.86
2023-03-14T21:59:24.328Z,42.50
2023-03-14T22:04:34.864Z,42.67
2023-03-14T22:09:40.180Z,42.64
2023-03-14T22:14:42.186Z,42.35
2023-03-14T22:19:44.165Z,42.13
2023-03-14T22:24:46.385Z,42.19
2023-03-14T22:29:48.511Z,42.12
2023-03-14T22:34:50.431Z,42.23
2023-03-14T22:39:52.453Z,42.38
2023-03-14T22:44:54.564Z,42.13
2023-03-14T22:49:56.495Z,42.11
2023-03-14T22:54:58.806Z,42.03
2023-03-14T23:00:01.174Z,42.17
2023-03-14T23:05:03.517Z,42.13
2023-03-14T23:10:06.177Z,41.99
2023-03-14T23:15:09.007Z,42.34
2023-03-14T23:20:12.609Z,42.22
2023-03-14T23:25:14.631Z,42.38
2023-03-14T23:30:17.590Z,42.04
2023-03-14T23:35:19.458Z,42.22
2023-03-14T23:40:21.444Z,42.04
2023-03-14T23:45:24.615Z,42.19
2023-03-14T23:50:26.712Z,41.95
2023-03-14T23:55:28.907Z,42.15
